createdAt,value
2018-04-18T00:01:12.250Z,24.87
2018-04-18T00:03:50.559Z,24.53
2018-04-18T00:06:29.164Z,24.93
2018-04-18T00:09:09.349Z,25.20
2018-04-18T00:11:48.540Z,23.53
2018-04-18T00:14:28.187Z,24.57
2018-04-18T00:17:08.685Z,24.80
2018-04-18T00:19:47.511Z,24.30
2018-04-18T00:22:26.101Z,24.73
2018-04-18T00:25:07.008Z,23.47
2018-04-18T00:27:46.119Z,23.70
2018-04-18T00:30:24.603Z,23.73
2018-04-18T00:33:08.279Z,23.27
2018-04-18T00:35:46.851Z,23.60
2018-04-18T00:38:25.311Z,22.27
2018-04-18T00:41:07.988Z,22.77
2018-04-18T00:43:47.356Z,23.07
2018-04-18T00:46:25.743Z,22.13
2018-04-18T00:49:06.315Z,22.67
2018-04-18T00:51:45.807Z,23.57
2018-04-18T00:54:26.008Z,23.47
2018-04-18T00:57:06.772Z,22.97
2018-04-18T00:59:45.496Z,23.20
2018-04-18T01:02:24.334Z,23.30
2018-04-18T01:05:03.728Z,21.77
2018-04-18T01:07:42.473Z,23.13
2018-04-18T01:10:20.730Z,21.53
2018-04-18T01:13:00.044Z,22.30
2018-04-18T01:15:38.619Z,21.67
2018-04-18T01:18:17.468Z,22.93
2018-04-18T01:20:56.014Z,23.67
2018-04-18T01:23:34.955Z,22.03
2018-04-18T01:26:13.983Z,23.07
2018-04-18T01:29:00.857Z,21.43
2018-04-18T01:31:41.186Z,21.27
2018-04-18T01:34:20.204Z,21.50
2018-04-18T01:36:59.689Z,20.93
2018-04-18T01:39:38.514Z,20.43
2018-04-18T01:42:17.293Z,20.40
2018-04-18T01:44:57.214Z,20.63
2018-04-18T01:47:35.908Z,20.67
2018-04-18T01:50:14.659Z,22.07
2018-04-18T01:52:56.801Z,22.60
2018-04-18T01:55:35.107Z,21.93
2018-04-18T01:58:14.033Z,21.70
2018-04-18T02:00:54.559Z,22.13
2018-04-18T02:03:33.382Z,21.47
2018-04-18T02:06:12.516Z,23.07
2018-04-18T02:08:51.486Z,21.47
2018-04-18T02:11:30.537Z,22.80
2018-04-18T02:14:16.474Z,22.77
2018-04-18T02:16:54.992Z,23.57
2018-04-18T02:19:33.925Z,22.43
2018-04-18T02:22:13.143Z,22.93
2018-04-18T02:24:51.783Z,21.47
2018-04-18T02:27:30.349Z,22.33
2018-04-18T02:30:09.152Z,22.57
2018-04-18T02:32:48.092Z,21.27
2018-04-18T02:35:27.533Z,20.50
2018-04-18T02:38:10.657Z,21.10
2018-04-18T02:40:49.992Z,21.17
2018-04-18T02:43:29.223Z,21.47
2018-04-18T02:46:07.753Z,19.83
2018-04-18T02:48:47.303Z,20.93
2018-04-18T02:51:27.725Z,20.20
2018-04-18T02:54:07.144Z,19.83
2018-04-18T02:56:45.586Z,20.77
2018-04-18T02:59:26.437Z,22.00
2018-04-18T03:02:06.302Z,19.93
2018-04-18T03:04:44.749Z,20.50
2018-04-18T03:07:27.110Z,20.23
2018-04-18T03:10:07.185Z,19.10
2018-04-18T03:12:45.652Z,19.30
2018-04-18T03:15:28.683Z,19.33
2018-04-18T03:18:07.215Z,18.83
2018-04-18T03:20:46.779Z,19.40
2018-04-18T03:23:28.279Z,19.67
2018-04-18T03:26:08.443Z,20.10
2018-04-18T03:28:46.946Z,19.90
2018-04-18T03:31:27.150Z,19.83
2018-04-18T03:34:05.907Z,19.37
2018-04-18T03:36:44.507Z,19.23
2018-04-18T03:39:24.426Z,20.47
2018-04-18T03:42:03.699Z,19.17
2018-04-18T03:44:42.459Z,19.63
2018-04-18T03:47:24.486Z,18.37
2018-04-18T03:50:04.679Z,20.33
2018-04-18T03:52:43.294Z,20.63
2018-04-18T03:55:22.114Z,19.10
2018-04-18T03:58:00.789Z,19.47
2018-04-18T04:00:39.977Z,17.83
2018-04-18T04:03:23.715Z,19.17
2018-04-18T04:06:03.071Z,18.23
2018-04-18T04:08:43.954Z,19.10
2018-04-18T04:11:22.686Z,18.97
2018-04-18T04:14:01.195Z,18.33
2018-04-18T04:17:54.463Z,17.87
2018-04-18T04:23:46.296Z,17.07
2018-04-18T04:26:25.726Z,17.60
2018-04-18T04:29:04.378Z,19.23
2018-04-18T04:31:44.112Z,18.13
2018-04-18T04:34:22.632Z,18.77
2018-04-18T04:37:01.025Z,18.53
2018-04-18T04:39:42.945Z,17.00
2018-04-18T04:42:21.190Z,18.10
2018-04-18T04:45:00.796Z,18.00
2018-04-18T04:47:41.212Z,17.70
2018-04-18T04:50:19.794Z,17.67
2018-04-18T04:52:58.480Z,17.40
2018-04-18T04:55:41.914Z,18.20
2018-04-18T04:58:20.312Z,18.70
2018-04-18T05:00:59.247Z,18.87
2018-04-18T05:03:41.278Z,19.80
2018-04-18T05:06:19.592Z,17.77
2018-04-18T05:10:01.402Z,18.63
2018-04-18T05:12:41.154Z,19.27
2018-04-18T05:15:20.385Z,17.60
2018-04-18T05:18:01.424Z,18.70
2018-04-18T05:20:39.901Z,19.30
2018-04-18T05:23:20.594Z,18.73
2018-04-18T05:26:01.709Z,19.00
2018-04-18T05:28:42.049Z,18.13
2018-04-18T05:31:22.495Z,18.53
2018-04-18T05:34:01.633Z,18.77
2018-04-18T05:36:43.229Z,19.77
2018-04-18T05:39:21.196Z,17.80
2018-04-18T05:42:00.801Z,19.90
2018-04-18T05:44:40.248Z,19.60
2018-04-18T05:47:18.996Z,20.60
2018-04-18T05:49:58.325Z,21.17
2018-04-18T06:05:36.512Z,20.50
2018-04-18T06:08:21.084Z,22.10
2018-04-18T06:10:59.314Z,22.30
2018-04-18T06:13:40.856Z,25.03
2018-04-18T06:16:25.225Z,26.00
2018-04-18T06:19:06.862Z,28.40
2018-04-18T06:21:51.165Z,26.67
2018-04-18T06:24:29.793Z,26.37
2018-04-18T06:27:14.973Z,25.43
2018-04-18T06:29:53.458Z,23.37
2018-04-18T06:32:31.823Z,23.63
2018-04-18T06:35:12.747Z,21.47
2018-04-18T06:37:52.232Z,22.83
2018-04-18T06:40:32.390Z,21.63
2018-04-18T06:43:11.657Z,23.00
2018-04-18T06:45:50.182Z,24.73
2018-04-18T06:48:31.390Z,23.37
2018-04-18T06:51:14.756Z,20.80
2018-04-18T06:53:53.659Z,23.20
2018-04-18T06:56:34.817Z,24.87
2018-04-18T06:59:14.141Z,23.43
2018-04-18T07:01:52.300Z,23.23
2018-04-18T07:04:33.290Z,24.50
2018-04-18T07:07:12.368Z,22.30
2018-04-18T07:09:55.794Z,21.83
2018-04-18T07:12:33.759Z,21.27
2018-04-18T07:15:13.097Z,22.37
2018-04-18T07:17:55.340Z,22.77
2018-04-18T07:20:34.259Z,22.07
2018-04-18T07:23:14.564Z,21.80
2018-04-18T07:25:57.290Z,21.10
2018-04-18T07:28:35.687Z,20.67
2018-04-18T07:31:21.979Z,20.70
2018-04-18T07:34:00.156Z,19.70
2018-04-18T07:36:39.366Z,19.07
2018-04-18T07:39:19.475Z,19.70
2018-04-18T07:41:57.432Z,19.93
2018-04-18T07:44:37.949Z,20.00
2018-04-18T07:47:17.403Z,19.03
2018-04-18T07:49:57.834Z,19.30
2018-04-18T07:52:37.801Z,17.77
2018-04-18T07:55:20.530Z,18.40
2018-04-18T07:58:00.034Z,18.73
2018-04-18T08:00:45.631Z,19.10
2018-04-18T08:03:25.326Z,18.83
2018-04-18T08:06:03.697Z,18.07
2018-04-18T08:08:44.260Z,18.90
2018-04-18T08:11:23.266Z,18.63
2018-04-18T08:14:01.494Z,18.50
2018-04-18T08:16:43.326Z,17.30
2018-04-18T08:19:21.513Z,16.23
2018-04-18T08:22:02.090Z,21.80
2018-04-18T08:24:42.684Z,21.43
2018-04-18T08:27:21.916Z,17.73
2018-04-18T08:30:06.323Z,21.10
2018-04-18T08:32:44.780Z,20.80
2018-04-18T08:35:24.344Z,17.90
2018-04-18T08:38:06.191Z,17.67
2018-04-18T08:40:44.337Z,19.73
2018-04-18T08:43:28.853Z,14.87
2018-04-18T08:46:07.891Z,15.63
2018-04-18T08:48:46.256Z,14.87
2018-04-18T08:51:27.533Z,15.47
2018-04-18T08:54:05.824Z,16.00
2018-04-18T08:56:45.823Z,14.47
2018-04-18T08:59:28.217Z,15.83
2018-04-18T09:02:07.240Z,15.13
2018-04-18T09:04:47.682Z,15.13
2018-04-18T09:07:27.387Z,14.73
2018-04-18T09:10:07.177Z,12.17
2018-04-18T09:12:50.579Z,13.90
2018-04-18T09:15:31.171Z,14.03
2018-04-18T09:18:10.128Z,12.50
2018-04-18T09:20:53.049Z,13.20
2018-04-18T09:23:32.449Z,11.00
2018-04-18T09:26:11.513Z,10.63
2018-04-18T09:28:54.169Z,9.47
2018-04-18T09:31:32.508Z,9.13
2018-04-18T09:34:10.925Z,10.80
2018-04-18T09:36:54.690Z,11.40
2018-04-18T09:39:33.760Z,9.87
2018-04-18T09:42:27.069Z,9.00
2018-04-18T09:45:08.260Z,8.90
2018-04-18T09:47:54.342Z,7.30
2018-04-18T09:50:33.600Z,7.50
2018-04-18T09:53:20.770Z,9.40
2018-04-18T09:56:01.941Z,7.00
2018-04-18T09:58:40.320Z,7.70
2018-04-18T10:01:30.699Z,9.20
2018-04-18T10:04:12.774Z,7.70
2018-04-18T10:06:59.333Z,6.07
2018-04-18T10:09:39.043Z,5.73
2018-04-18T10:12:17.615Z,7.27
2018-04-18T10:14:59.771Z,7.40
2018-04-18T10:17:39.173Z,6.10
2018-04-18T10:20:17.580Z,7.00
2018-04-18T10:22:56.233Z,7.43
2018-04-18T10:25:36.855Z,6.80
2018-04-18T10:28:17.032Z,6.37
2018-04-18T10:31:00.782Z,7.47
2018-04-18T10:33:40.826Z,6.87
2018-04-18T10:36:23.696Z,6.67
2018-04-18T10:39:04.009Z,6.40
2018-04-18T10:41:43.611Z,7.07
2018-04-18T10:44:24.833Z,6.70
2018-04-18T10:47:11.015Z,4.90
2018-04-18T10:49:57.455Z,5.40
2018-04-18T10:52:40.219Z,6.93
2018-04-18T10:55:24.433Z,7.00
2018-04-18T10:58:03.384Z,7.17
2018-04-18T11:00:41.533Z,7.83
2018-04-18T11:03:24.625Z,9.30
2018-04-18T11:06:02.851Z,6.90
2018-04-18T11:08:41.670Z,8.30
2018-04-18T11:13:58.918Z,8.50
2018-04-18T11:16:41.822Z,8.23
2018-04-18T11:22:08.042Z,6.00
2018-04-18T11:24:46.615Z,6.13
2018-04-18T11:27:29.250Z,5.50
2018-04-18T11:30:08.029Z,7.13
2018-04-18T11:32:46.267Z,6.03
2018-04-18T11:35:28.668Z,7.80
2018-04-18T11:38:07.992Z,7.40
2018-04-18T11:40:47.657Z,7.80
2018-04-18T11:43:32.947Z,7.77
2018-04-18T11:46:12.395Z,7.53
2018-04-18T11:48:50.677Z,7.80
2018-04-18T11:51:34.497Z,7.87
2018-04-18T11:54:27.027Z,6.93
2018-04-18T12:00:03.532Z,6.27
2018-04-18T12:02:55.195Z,6.17
2018-04-18T12:05:33.426Z,6.63
2018-04-18T12:08:13.762Z,8.17
2018-04-18T12:11:09.872Z,7.33
2018-04-18T12:13:49.137Z,7.20
2018-04-18T12:16:34.453Z,7.43
2018-04-18T12:22:16.357Z,6.00
2018-04-18T12:24:54.919Z,7.47
2018-04-18T12:27:33.577Z,7.07
2018-04-18T12:30:18.865Z,7.40
2018-04-18T12:32:59.481Z,7.63
2018-04-18T12:35:37.988Z,7.23
2018-04-18T12:38:19.665Z,7.40
2018-04-18T12:40:58.591Z,8.27
2018-04-18T12:43:37.889Z,8.00
2018-04-18T12:46:21.767Z,7.93
2018-04-18T12:49:01.257Z,7.73
2018-04-18T12:51:42.176Z,8.80
2018-04-18T12:54:36.170Z,7.73
2018-04-18T12:57:15.653Z,8.50
2018-04-18T12:59:57.554Z,9.30
2018-04-18T13:02:36.212Z,10.30
2018-04-18T13:08:03.013Z,10.53
2018-04-18T13:10:42.094Z,9.27
2018-04-18T13:16:19.999Z,9.97
2018-04-18T13:19:00.813Z,10.23
2018-04-18T13:21:49.860Z,9.90
2018-04-18T13:24:38.608Z,10.73
2018-04-18T13:27:18.991Z,10.43
2018-04-18T13:29:58.995Z,9.77
2018-04-18T13:32:39.894Z,9.90
2018-04-18T13:35:20.137Z,9.87
2018-04-18T13:38:04.500Z,9.53
2018-04-18T13:43:44.873Z,9.10
2018-04-18T13:46:24.679Z,8.67
2018-04-18T13:49:06.778Z,9.30
2018-04-18T13:51:45.315Z,8.63
2018-04-18T13:54:30.867Z,9.10
2018-04-18T13:57:20.385Z,7.97
2018-04-18T14:00:09.508Z,8.83
2018-04-18T14:06:00.496Z,9.27
2018-04-18T14:08:44.777Z,8.93
2018-04-18T14:11:24.843Z,9.33
2018-04-18T14:14:11.914Z,9.43
2018-04-18T14:16:50.445Z,8.97
2018-04-18T14:19:32.235Z,8.70
2018-04-18T14:22:10.630Z,9.97
2018-04-18T14:24:51.125Z,9.10
2018-04-18T14:30:38.063Z,8.67
2018-04-18T14:33:23.454Z,8.70
2018-04-18T14:36:15.749Z,8.80
2018-04-18T14:39:08.163Z,7.33
2018-04-18T14:41:48.204Z,8.37
2018-04-18T14:44:32.605Z,8.60
2018-04-18T14:47:14.415Z,7.90
2018-04-18T14:49:52.757Z,8.77
2018-04-18T14:52:34.304Z,10.03
2018-04-18T14:55:15.028Z,9.40
2018-04-18T14:57:53.426Z,10.27
2018-04-18T15:00:43.989Z,9.53
2018-04-18T15:03:29.662Z,9.90
2018-04-18T15:06:17.081Z,9.40
2018-04-18T15:08:56.643Z,9.20
2018-04-18T15:11:35.400Z,8.40
2018-04-18T15:14:16.470Z,8.83
2018-04-18T15:16:56.683Z,8.90
2018-04-18T15:19:36.172Z,8.97
2018-04-18T15:22:16.827Z,9.47
2018-04-18T15:24:56.197Z,8.50
2018-04-18T15:27:34.939Z,9.73
2018-04-18T15:30:17.713Z,9.13
2018-04-18T15:32:56.132Z,8.60
2018-04-18T15:35:34.572Z,9.30
2018-04-18T15:38:15.254Z,9.43
2018-04-18T15:40:56.739Z,8.30
2018-04-18T15:43:37.397Z,8.53
2018-04-18T15:46:19.356Z,7.57
2018-04-18T15:48:58.436Z,8.07
2018-04-18T15:51:39.873Z,7.73
2018-04-18T15:54:18.207Z,8.23
2018-04-18T15:57:02.453Z,8.33
2018-04-18T15:59:40.704Z,8.00
2018-04-18T16:02:19.157Z,7.33
2018-04-18T16:05:01.449Z,8.67
2018-04-18T16:07:39.833Z,8.70
2018-04-18T16:10:20.693Z,9.33
2018-04-18T16:13:18.810Z,7.93
2018-04-18T16:16:01.050Z,8.73
2018-04-18T16:18:42.351Z,7.40
2018-04-18T16:21:24.904Z,7.30
2018-04-18T16:24:03.134Z,8.17
2018-04-18T16:26:41.610Z,10.13
2018-04-18T16:29:36.655Z,9.43
2018-04-18T16:32:17.153Z,9.60
2018-04-18T16:34:57.311Z,8.93
2018-04-18T16:37:38.435Z,9.37
2018-04-18T16:40:17.987Z,8.17
2018-04-18T16:42:57.640Z,9.70
2018-04-18T16:45:39.522Z,9.20
2018-04-18T16:48:19.472Z,9.77
2018-04-18T16:51:00.090Z,10.00
2018-04-18T16:53:41.102Z,10.20
2018-04-18T16:56:20.625Z,10.17
2018-04-18T16:59:03.162Z,9.60
2018-04-18T17:01:45.143Z,10.83
2018-04-18T17:04:23.965Z,10.40
2018-04-18T17:07:05.882Z,11.03
2018-04-18T17:09:43.866Z,10.97
2018-04-18T17:12:23.355Z,11.43
2018-04-18T17:15:05.126Z,13.10
2018-04-18T17:17:45.556Z,11.50
2018-04-18T17:20:25.919Z,13.53
2018-04-18T17:23:06.069Z,12.10
2018-04-18T17:25:46.143Z,11.83
2018-04-18T17:28:29.099Z,11.23
2018-04-18T17:31:07.899Z,10.47
2018-04-18T17:33:48.584Z,9.40
2018-04-18T17:36:28.173Z,10.97
2018-04-18T17:39:08.062Z,10.17
2018-04-18T17:41:48.384Z,10.63
2018-04-18T17:44:27.805Z,10.40
2018-04-18T17:47:09.948Z,11.60
2018-04-18T17:49:50.163Z,10.70
2018-04-18T17:52:30.760Z,11.03
2018-04-18T17:55:10.864Z,10.77
2018-04-18T17:57:52.989Z,10.30
2018-04-18T18:00:34.042Z,9.87
2018-04-18T18:03:12.987Z,10.17
2018-04-18T18:05:53.282Z,10.27
2018-04-18T18:08:49.000Z,9.50
2018-04-18T18:11:35.520Z,9.93
2018-04-18T18:14:19.357Z,9.07
2018-04-18T18:16:58.629Z,8.50
2018-04-18T18:19:37.473Z,9.13
2018-04-18T18:22:19.083Z,8.33
2018-04-18T18:24:57.707Z,8.17
2018-04-18T18:27:37.240Z,7.50
2018-04-18T18:30:19.270Z,7.90
2018-04-18T18:33:04.170Z,8.70
2018-04-18T18:35:42.517Z,8.37
2018-04-18T18:38:22.553Z,8.17
2018-04-18T18:41:02.202Z,8.40
2018-04-18T18:43:42.056Z,8.60
2018-04-18T18:46:23.252Z,9.60
2018-04-18T18:49:02.755Z,9.20
2018-04-18T18:51:44.059Z,9.10
2018-04-18T18:54:24.601Z,9.03
2018-04-18T18:57:09.244Z,9.20
2018-04-18T18:59:54.947Z,8.77
2018-04-18T19:02:42.293Z,9.17
2018-04-18T19:05:23.914Z,9.50
2018-04-18T19:08:06.908Z,9.37
2018-04-18T19:10:48.690Z,10.20
2018-04-18T19:13:29.076Z,9.63
2018-04-18T19:16:19.103Z,9.40
2018-04-18T19:19:02.772Z,11.33
2018-04-18T19:21:43.226Z,10.43
2018-04-18T19:24:23.081Z,9.57
2018-04-18T19:27:05.180Z,10.43
2018-04-18T19:29:45.848Z,10.37
2018-04-18T19:32:27.811Z,9.77
2018-04-18T19:35:08.902Z,10.40
2018-04-18T19:37:49.386Z,10.33
2018-04-18T19:40:29.043Z,10.13
2018-04-18T19:43:11.120Z,12.13
2018-04-18T19:45:50.126Z,10.80
2018-04-18T19:48:30.228Z,10.07
2018-04-18T19:51:11.752Z,10.57
2018-04-18T19:53:50.720Z,10.50
2018-04-18T19:56:31.391Z,11.53
2018-04-18T19:59:13.977Z,10.23
2018-04-18T20:01:54.504Z,11.03
2018-04-18T20:04:33.424Z,11.27
2018-04-18T20:07:12.058Z,10.27
2018-04-18T20:09:56.018Z,10.23
2018-04-18T20:12:37.298Z,10.47
2018-04-18T20:15:24.551Z,10.43
2018-04-18T20:18:06.087Z,10.50
2018-04-18T20:20:46.625Z,10.90
2018-04-18T20:23:30.130Z,9.93
2018-04-18T20:26:09.558Z,9.60
2018-04-18T20:28:52.051Z,10.20
2018-04-18T20:31:30.768Z,10.10
2018-04-18T20:34:17.435Z,9.87
2018-04-18T20:36:55.997Z,10.13
2018-04-18T20:39:38.693Z,10.47
2018-04-18T20:42:18.015Z,10.20
2018-04-18T20:44:56.526Z,10.50
2018-04-18T20:47:39.558Z,10.60
2018-04-18T20:50:17.737Z,12.43
2018-04-18T20:52:56.985Z,10.33
2018-04-18T20:55:36.855Z,9.93
2018-04-18T20:58:16.204Z,11.97
2018-04-18T21:00:56.057Z,10.90
2018-04-18T21:03:36.963Z,10.47
2018-04-18T21:06:15.905Z,10.00
2018-04-18T21:08:55.575Z,9.97
2018-04-18T21:11:38.850Z,11.00
2018-04-18T21:14:17.521Z,11.23
2018-04-18T21:16:56.088Z,10.90
2018-04-18T21:19:37.865Z,10.20
2018-04-18T21:22:16.373Z,10.63
2018-04-18T21:24:58.654Z,10.23
2018-04-18T21:27:37.383Z,10.57
2018-04-18T21:30:17.556Z,10.43
2018-04-18T21:32:57.497Z,9.93
2018-04-18T21:35:35.880Z,10.17
2018-04-18T21:38:19.668Z,9.37
2018-04-18T21:41:03.414Z,10.53
2018-04-18T21:43:41.959Z,10.50
2018-04-18T21:46:22.516Z,9.83
2018-04-18T21:49:01.654Z,10.47
2018-04-18T21:51:40.171Z,10.17
2018-04-18T21:54:19.135Z,9.83
2018-04-18T21:57:02.005Z,11.27
2018-04-18T21:59:41.223Z,10.20
2018-04-18T22:06:05.563Z,10.60
2018-04-18T22:09:11.497Z,10.07
2018-04-18T22:11:50.088Z,10.97
2018-04-18T22:14:45.907Z,10.50
2018-04-18T22:17:30.595Z,10.30
2018-04-18T22:20:09.614Z,10.10
2018-04-18T22:22:48.671Z,10.70
2018-04-18T22:25:27.062Z,10.23
2018-04-18T22:28:06.182Z,10.70
2018-04-18T22:30:47.001Z,10.53
2018-04-18T22:33:26.985Z,10.67
2018-04-18T22:36:06.277Z,10.93
2018-04-18T22:38:48.306Z,10.80
2018-04-18T22:41:27.725Z,10.13
2018-04-18T22:44:07.175Z,10.10
2018-04-18T22:46:45.903Z,10.23
2018-04-18T22:49:24.520Z,11.40
2018-04-18T22:52:04.092Z,10.63
2018-04-18T22:54:45.483Z,10.80
2018-04-18T22:57:24.222Z,9.83
2018-04-18T23:00:03.213Z,10.50
2018-04-18T23:02:42.164Z,10.50
2018-04-18T23:05:20.760Z,11.13
2018-04-18T23:08:00.474Z,10.40
2018-04-18T23:10:39.335Z,10.00
2018-04-18T23:13:22.390Z,10.73
2018-04-18T23:16:07.957Z,10.80
2018-04-18T23:18:46.534Z,11.80
2018-04-18T23:21:25.647Z,10.47
2018-04-18T23:24:04.779Z,10.50
2018-04-18T23:26:44.276Z,10.30
2018-04-18T23:29:23.050Z,10.20
2018-04-18T23:32:01.812Z,10.57
2018-04-18T23:34:40.335Z,10.30
2018-04-18T23:37:18.983Z,10.33
2018-04-18T23:39:57.402Z,9.67
2018-04-18T23:42:36.264Z,10.17
2018-04-18T23:45:15.736Z,10.23
2018-04-18T23:47:56.152Z,10.03
2018-04-18T23:50:34.662Z,10.80
2018-04-18T23:53:13.854Z,11.23
2018-04-18T23:55:56.109Z,11.00
2018-04-18T23:58:36.174Z,10.80
